sensor_id;sensor_type;location;lat;lon;timestamp;pressure;altitude;pressure_sealevel;temperature;humidity
17072;BME280;7731;50.720;6.912;2022-09-21T00:00:02;101070.91;;;8.34;100.00
17072;BME280;7731;50.720;6.912;2022-09-21T00:02:32;101064.09;;;8.33;100.00
17072;BME280;7731;50.720;6.912;2022-09-21T00:05:08;101063.41;;;8.27;100.00
17072;BME280;7731;50.720;6.912;2022-09-21T00:07:41;101069.59;;;8.18;100.00
17072;BME280;7731;50.720;6.912;2022-09-21T00:10:14;101069.59;;;8.18;100.00
17072;BME280;7731;50.720;6.912;2022-09-21T00:12:45;101075.47;;;8.21;100.00
17072;BME280;7731;50.720;6.912;2022-09-21T00:15:16;101076.47;;;8.16;100.00
17072;BME280;7731;50.720;6.912;2022-09-21T00:17:52;101073.25;;;8.08;100.00
17072;BME280;7731;50.720;6.912;2022-09-21T00:20:28;101064.72;;;8.07;100.00
17072;BME280;7731;50.720;6.912;2022-09-21T00:23:04;101064.84;;;8.02;100.00
17072;BME280;7731;50.720;6.912;2022-09-21T00:25:34;101067.28;;;8.07;100.00
17072;BME280;7731;50.720;6.912;2022-09-21T00:28:04;101069.75;;;8.12;100.00
17072;BME280;7731;50.720;6.912;2022-09-21T00:30:45;101075.09;;;8.02;100.00
17072;BME280;7731;50.720;6.912;2022-09-21T00:33:25;101070.63;;;8.11;100.00
17072;BME280;7731;50.720;6.912;2022-09-21T00:35:55;101069.53;;;8.21;100.00
17072;BME280;7731;50.720;6.912;2022-09-21T00:38:36;101078.13;;;8.17;100.00
17072;BME280;7731;50.720;6.912;2022-09-21T00:41:08;101077.38;;;8.13;100.00
17072;BME280;7731;50.720;6.912;2022-09-21T00:43:44;101072.78;;;8.26;100.00
17072;BME280;7731;50.720;6.912;2022-09-21T00:46:25;101075.44;;;8.23;100.00
17072;BME280;7731;50.720;6.912;2022-09-21T00:48:57;101068.34;;;7.98;100.00
17072;BME280;7731;50.720;6.912;2022-09-21T00:51:30;101075.38;;;7.90;100.00
17072;BME280;7731;50.720;6.912;2022-09-21T00:54:13;101082.84;;;7.99;100.00
17072;BME280;7731;50.720;6.912;2022-09-21T00:56:50;101077.06;;;7.91;100.00
17072;BME280;7731;50.720;6.912;2022-09-21T00:59:21;101080.34;;;7.96;100.00
17072;BME280;7731;50.720;6.912;2022-09-21T01:01:58;101080.41;;;7.93;100.00
17072;BME280;7731;50.720;6.912;2022-09-21T01:04:29;101082.59;;;7.73;100.00
17072;BME280;7731;50.720;6.912;2022-09-21T01:07:13;101075.78;;;7.72;100.00
17072;BME280;7731;50.720;6.912;2022-09-21T01:09:52;101078.81;;;7.50;100.00
17072;BME280;7731;50.720;6.912;2022-09-21T01:13:01;101074.38;;;7.58;100.00
17072;BME280;7731;50.720;6.912;2022-09-21T01:15:49;101074.44;;;7.55;100.00
17072;BME280;7731;50.720;6.912;2022-09-21T01:18:31;101081.13;;;7.62;100.00
17072;BME280;7731;50.720;6.912;2022-09-21T01:21:19;101082.75;;;7.66;100.00
17072;BME280;7731;50.720;6.912;2022-09-21T01:24:22;101073.34;;;7.67;100.00
17072;BME280;7731;50.720;6.912;2022-09-21T01:27:40;101070.81;;;7.65;100.00
17072;BME280;7731;50.720;6.912;2022-09-21T01:30:23;101068.53;;;7.53;100.00
17072;BME280;7731;50.720;6.912;2022-09-21T01:33:08;101087.38;;;7.47;100.00
17072;BME280;7731;50.720;6.912;2022-09-21T01:35:49;101078.84;;;7.48;100.00
17072;BME280;7731;50.720;6.912;2022-09-21T01:38:27;101075.47;;;7.48;100.00
17072;BME280;7731;50.720;6.912;2022-09-21T01:41:03;101084.28;;;7.33;100.00
17072;BME280;7731;50.720;6.912;2022-09-21T01:43:39;101078.25;;;7.36;100.00
17072;BME280;7731;50.720;6.912;2022-09-21T01:46:19;101081.44;;;7.47;100.00
17072;BME280;7731;50.720;6.912;2022-09-21T01:48:55;101073.13;;;7.36;100.00
17072;BME280;7731;50.720;6.912;2022-09-21T01:51:28;101076.53;;;7.38;100.00
17072;BME280;7731;50.720;6.912;2022-09-21T01:54:06;101081.63;;;7.38;100.00
17072;BME280;7731;50.720;6.912;2022-09-21T01:56:47;101073.03;;;7.42;100.00
17072;BME280;7731;50.720;6.912;2022-09-21T01:59:25;101071.28;;;7.44;100.00
17072;BME280;7731;50.720;6.912;2022-09-21T02:02:05;101069.72;;;7.37;100.00
17072;BME280;7731;50.720;6.912;2022-09-21T02:04:38;101074.81;;;7.38;100.00
17072;BME280;7731;50.720;6.912;2022-09-21T02:07:09;101077.28;;;7.41;100.00
17072;BME280;7731;50.720;6.912;2022-09-21T02:09:42;101077.31;;;7.40;100.00
17072;BME280;7731;50.720;6.912;2022-09-21T02:12:14;101079.16;;;7.35;100.00
17072;BME280;7731;50.720;6.912;2022-09-21T02:14:46;101073.41;;;7.23;100.00
17072;BME280;7731;50.720;6.912;2022-09-21T02:17:35;101070.81;;;7.25;100.00
17072;BME280;7731;50.720;6.912;2022-09-21T02:20:18;101077.53;;;7.30;100.00
17072;BME280;7731;50.720;6.912;2022-09-21T02:23:02;101078.91;;;7.45;100.00
17072;BME280;7731;50.720;6.912;2022-09-21T02:25:45;101083.34;;;7.39;100.00
17072;BME280;7731;50.720;6.912;2022-09-21T02:28:32;101073.94;;;7.39;100.00
17072;BME280;7731;50.720;6.912;2022-09-21T02:31:13;101071.41;;;7.38;100.00
17072;BME280;7731;50.720;6.912;2022-09-21T02:33:58;101073.81;;;7.45;100.00
17072;BME280;7731;50.720;6.912;2022-09-21T02:36:45;101073.28;;;7.29;100.00
17072;BME280;7731;50.720;6.912;2022-09-21T02:39:33;101080.97;;;7.28;100.00
17072;BME280;7731;50.720;6.912;2022-09-21T02:42:09;101074.81;;;7.38;100.00
17072;BME280;7731;50.720;6.912;2022-09-21T02:44:51;101074.91;;;7.33;100.00
17072;BME280;7731;50.720;6.912;2022-09-21T02:47:30;101071.22;;;7.47;100.00
17072;BME280;7731;50.720;6.912;2022-09-21T02:50:12;101076.91;;;7.19;100.00
17072;BME280;7731;50.720;6.912;2022-09-21T02:52:44;101079.34;;;7.25;100.00
17072;BME280;7731;50.720;6.912;2022-09-21T02:55:16;101071.84;;;7.16;100.00
17072;BME280;7731;50.720;6.912;2022-09-21T02:57:48;101082.19;;;7.10;100.00
17072;BME280;7731;50.720;6.912;2022-09-21T03:00:19;101075.41;;;7.09;100.00
17072;BME280;7731;50.720;6.912;2022-09-21T03:02:50;101074.56;;;7.08;100.00
17072;BME280;7731;50.720;6.912;2022-09-21T03:05:25;101077.34;;;6.97;100.00
17072;BME280;7731;50.720;6.912;2022-09-21T03:08:01;101070.75;;;6.84;100.00
17072;BME280;7731;50.720;6.912;2022-09-21T03:10:35;101068.97;;;6.89;100.00
17072;BME280;7731;50.720;6.912;2022-09-21T03:13:06;101071.06;;;6.69;100.00
17072;BME280;7731;50.720;6.912;2022-09-21T03:15:38;101068.38;;;6.75;100.00
17072;BME280;7731;50.720;6.912;2022-09-21T03:18:10;101074.19;;;6.83;100.00
17072;BME280;7731;50.720;6.912;2022-09-21T03:20:50;101075.16;;;6.77;100.00
17072;BME280;7731;50.720;6.912;2022-09-21T03:23:21;101069.94;;;6.84;100.00
17072;BME280;7731;50.720;6.912;2022-09-21T03:25:52;101066.50;;;6.85;100.00
17072;BME280;7731;50.720;6.912;2022-09-21T03:28:22;101072.50;;;6.84;100.00
17072;BME280;7731;50.720;6.912;2022-09-21T03:30:52;101075.84;;;6.86;100.00
17072;BME280;7731;50.720;6.912;2022-09-21T03:33:23;101076.03;;;6.76;100.00
17072;BME280;7731;50.720;6.912;2022-09-21T03:35:56;101069.31;;;6.71;100.00
17072;BME280;7731;50.720;6.912;2022-09-21T03:38:26;101077.16;;;6.60;100.00
17072;BME280;7731;50.720;6.912;2022-09-21T03:40:56;101079.16;;;6.44;100.00
17072;BME280;7731;50.720;6.912;2022-09-21T03:43:29;101085.22;;;6.37;100.00
17072;BME280;7731;50.720;6.912;2022-09-21T03:46:08;101085.97;;;6.43;100.00
17072;BME280;7731;50.720;6.912;2022-09-21T03:48:39;101082.09;;;6.21;100.00
17072;BME280;7731;50.720;6.912;2022-09-21T03:51:16;101087.06;;;6.29;100.00
17072;BME280;7731;50.720;6.912;2022-09-21T03:53:52;101080.22;;;6.31;100.00
17072;BME280;7731;50.720;6.912;2022-09-21T03:56:34;101086.41;;;6.16;100.00
17072;BME280;7731;50.720;6.912;2022-09-21T03:59:05;101082.00;;;6.25;100.00
17072;BME280;7731;50.720;6.912;2022-09-21T04:01:40;101083.72;;;6.23;100.00
17072;BME280;7731;50.720;6.912;2022-09-21T04:04:10;101077.66;;;6.31;100.00
17072;BME280;7731;50.720;6.912;2022-09-21T04:06:45;101075.81;;;6.40;100.00
17072;BME280;7731;50.720;6.912;2022-09-21T04:09:15;101075.97;;;6.30;100.00
17072;BME280;7731;50.720;6.912;2022-09-21T04:11:48;101073.56;;;6.20;100.00
17072;BME280;7731;50.720;6.912;2022-09-21T04:14:20;101078.53;;;6.30;100.00
17072;BME280;7731;50.720;6.912;2022-09-21T04:16:51;101074.56;;;6.12;100.00
17072;BME280;7731;50.720;6.912;2022-09-21T04:19:21;101075.25;;;6.21;100.00
17072;BME280;7731;50.720;6.912;2022-09-21T04:21:56;101077.81;;;6.21;100.00
17072;BME280;7731;50.720;6.912;2022-09-21T04:24:26;101074.63;;;6.08;100.00
17072;BME280;7731;50.720;6.912;2022-09-21T04:26:57;101078.16;;;6.00;100.00
17072;BME280;7731;50.720;6.912;2022-09-21T04:29:27;101083.97;;;6.08;100.00
17072;BME280;7731;50.720;6.912;2022-09-21T04:31:57;101082.34;;;6.04;100.00
17072;BME280;7731;50.720;6.912;2022-09-21T04:34:36;101083.34;;;5.92;100.00
17072;BME280;7731;50.720;6.912;2022-09-21T04:37:10;101094.38;;;5.93;100.00
17072;BME280;7731;50.720;6.912;2022-09-21T04:39:45;101087.50;;;6.01;100.00
17072;BME280;7731;50.720;6.912;2022-09-21T04:42:15;101089.31;;;5.89;100.00
17072;BME280;7731;50.720;6.912;2022-09-21T04:44:45;101095.38;;;5.82;100.00
17072;BME280;7731;50.720;6.912;2022-09-21T04:47:15;101097.94;;;5.82;100.00
17072;BME280;7731;50.720;6.912;2022-09-21T04:49:52;101096.13;;;5.90;100.00
17072;BME280;7731;50.720;6.912;2022-09-21T04:52:25;101090.38;;;5.76;100.00
17072;BME280;7731;50.720;6.912;2022-09-21T04:54:55;101089.44;;;5.80;100.00
17072;BME280;7731;50.720;6.912;2022-09-21T04:57:25;101096.19;;;5.84;100.00
17072;BME280;7731;50.720;6.912;2022-09-21T04:59:55;101095.97;;;6.03;100.00
17072;BME280;7731;50.720;6.912;2022-09-21T05:02:25;101109.47;;;6.08;100.00
17072;BME280;7731;50.720;6.912;2022-09-21T05:04:55;101103.53;;;6.09;100.00
17072;BME280;7731;50.720;6.912;2022-09-21T05:07:28;101112.28;;;5.89;100.00
17072;BME280;7731;50.720;6.912;2022-09-21T05:10:01;101114.66;;;6.02;100.00
17072;BME280;7731;50.720;6.912;2022-09-21T05:12:34;101109.63;;;5.97;100.00
17072;BME280;7731;50.720;6.912;2022-09-21T05:15:08;101109.59;;;6.00;100.00
17072;BME280;7731;50.720;6.912;2022-09-21T05:17:40;101110.47;;;6.01;100.00
17072;BME280;7731;50.720;6.912;2022-09-21T05:20:13;101114.66;;;6.02;100.00
17072;BME280;7731;50.720;6.912;2022-09-21T05:22:45;101116.47;;;5.94;100.00
17072;BME280;7731;50.720;6.912;2022-09-21T05:25:16;101117.25;;;6.00;100.00
17072;BME280;7731;50.720;6.912;2022-09-21T05:27:46;101122.31;;;6.03;100.00
17072;BME280;7731;50.720;6.912;2022-09-21T05:30:18;101128.22;;;6.07;100.00
17072;BME280;7731;50.720;6.912;2022-09-21T05:32:56;101128.22;;;6.07;100.00
17072;BME280;7731;50.720;6.912;2022-09-21T05:35:39;101125.75;;;6.01;100.00
17072;BME280;7731;50.720;6.912;2022-09-21T05:38:19;101122.22;;;6.10;100.00
17072;BME280;7731;50.720;6.912;2022-09-21T05:40:53;101131.63;;;6.06;100.00
17072;BME280;7731;50.720;6.912;2022-09-21T05:43:27;101128.50;;;5.85;100.00
17072;BME280;7731;50.720;6.912;2022-09-21T05:46:06;101137.91;;;5.80;100.00
17072;BME280;7731;50.720;6.912;2022-09-21T05:48:46;101138.53;;;5.99;100.00
17072;BME280;7731;50.720;6.912;2022-09-21T05:51:30;101135.19;;;5.93;100.00
17072;BME280;7731;50.720;6.912;2022-09-21T05:54:19;101141.09;;;5.96;100.00
17072;BME280;7731;50.720;6.912;2022-09-21T05:57:08;101147.91;;;5.97;100.00
17072;BME280;7731;50.720;6.912;2022-09-21T05:59:56;101149.56;;;6.00;100.00
17072;BME280;7731;50.720;6.912;2022-09-21T06:03:08;101154.38;;;6.20;100.00
17072;BME280;7731;50.720;6.912;2022-09-21T06:05:45;101151.94;;;6.12;100.00
17072;BME280;7731;50.720;6.912;2022-09-21T06:08:15;101150.22;;;6.14;100.00
17072;BME280;7731;50.720;6.912;2022-09-21T06:10:51;101153.84;;;6.54;100.00
17072;BME280;7731;50.720;6.912;2022-09-21T06:13:24;101152.88;;;6.63;100.00
17072;BME280;7731;50.720;6.912;2022-09-21T06:16:02;101160.38;;;6.72;100.00
17072;BME280;7731;50.720;6.912;2022-09-21T06:18:36;101156.78;;;6.84;100.00
17072;BME280;7731;50.720;6.912;2022-09-21T06:21:09;101158.91;;;7.07;100.00
17072;BME280;7731;50.720;6.912;2022-09-21T06:23:39;101168.50;;;6.94;100.00
17072;BME280;7731;50.720;6.912;2022-09-21T06:26:11;101166.44;;;6.65;100.00
17072;BME280;7731;50.720;6.912;2022-09-21T06:28:44;101167.88;;;6.81;100.00
17072;BME280;7731;50.720;6.912;2022-09-21T06:31:14;101170.06;;;7.03;100.00
17072;BME280;7731;50.720;6.912;2022-09-21T06:33:44;101168.38;;;7.02;100.00
17072;BME280;7731;50.720;6.912;2022-09-21T06:36:15;101165.97;;;6.92;100.00
17072;BME280;7731;50.720;6.912;2022-09-21T06:38:45;101173.38;;;7.06;100.00
17072;BME280;7731;50.720;6.912;2022-09-21T06:41:18;101170.13;;;7.45;100.00
17072;BME280;7731;50.720;6.912;2022-09-21T06:43:52;101164.81;;;7.95;100.00
17072;BME280;7731;50.720;6.912;2022-09-21T06:46:34;101160.75;;;7.86;100.00
17072;BME280;7731;50.720;6.912;2022-09-21T06:49:04;101166.06;;;7.77;100.00
17072;BME280;7731;50.720;6.912;2022-09-21T06:51:34;101170.16;;;7.84;100.00
17072;BME280;7731;50.720;6.912;2022-09-21T06:54:08;101166.72;;;8.24;100.00
17072;BME280;7731;50.720;6.912;2022-09-21T06:56:47;101170.38;;;8.14;100.00
17072;BME280;7731;50.720;6.912;2022-09-21T06:59:17;101165.91;;;8.60;100.00
17072;BME280;7731;50.720;6.912;2022-09-21T07:01:47;101164.63;;;8.78;100.00
17072;BME280;7731;50.720;6.912;2022-09-21T07:04:21;101160.22;;;8.83;100.00
17072;BME280;7731;50.720;6.912;2022-09-21T07:06:51;101166.78;;;9.24;100.00
17072;BME280;7731;50.720;6.912;2022-09-21T07:09:21;101167.88;;;9.17;100.00
17072;BME280;7731;50.720;6.912;2022-09-21T07:12:14;101170.97;;;8.97;100.00
17072;BME280;7731;50.720;6.912;2022-09-21T07:14:44;101167.56;;;8.95;100.00
17072;BME280;7731;50.720;6.912;2022-09-21T07:17:31;101167.50;;;8.98;100.00
17072;BME280;7731;50.720;6.912;2022-09-21T07:20:04;101171.53;;;9.70;100.00
17072;BME280;7731;50.720;6.912;2022-09-21T07:22:35;101160.16;;;9.78;100.00
17072;BME280;7731;50.720;6.912;2022-09-21T07:25:06;101160.31;;;11.78;95.23
17072;BME280;7731;50.720;6.912;2022-09-21T07:27:40;101149.81;;;14.06;77.00
17072;BME280;7731;50.720;6.912;2022-09-21T07:30:13;101160.03;;;15.46;73.78
17072;BME280;7731;50.720;6.912;2022-09-21T07:32:46;101149.47;;;16.74;64.53
17072;BME280;7731;50.720;6.912;2022-09-21T07:35:16;101149.06;;;16.96;60.12
17072;BME280;7731;50.720;6.912;2022-09-21T07:37:46;101144.16;;;17.20;61.48
17072;BME280;7731;50.720;6.912;2022-09-21T07:40:16;101140.00;;;18.54;55.22
17072;BME280;7731;50.720;6.912;2022-09-21T07:43:02;101146.03;;;18.42;54.02
17072;BME280;7731;50.720;6.912;2022-09-21T07:45:51;101148.22;;;18.73;52.97
17072;BME280;7731;50.720;6.912;2022-09-21T07:48:23;101155.75;;;18.25;54.24
17072;BME280;7731;50.720;6.912;2022-09-21T07:51:01;101150.81;;;18.48;54.96
17072;BME280;7731;50.720;6.912;2022-09-21T07:53:33;101150.00;;;19.61;52.27
17072;BME280;7731;50.720;6.912;2022-09-21T07:56:12;101156.19;;;19.48;50.87
17072;BME280;7731;50.720;6.912;2022-09-21T07:58:48;101154.88;;;19.66;49.53
17072;BME280;7731;50.720;6.912;2022-09-21T08:01:31;101148.28;;;20.68;49.12
17072;BME280;7731;50.720;6.912;2022-09-21T08:04:06;101147.25;;;20.94;46.34
17072;BME280;7731;50.720;6.912;2022-09-21T08:06:39;101152.94;;;19.57;50.55
17072;BME280;7731;50.720;6.912;2022-09-21T08:09:09;101142.19;;;20.10;48.74
17072;BME280;7731;50.720;6.912;2022-09-21T08:11:39;101141.00;;;20.61;45.96
17072;BME280;7731;50.720;6.912;2022-09-21T08:14:15;101139.22;;;21.96;44.28
17072;BME280;7731;50.720;6.912;2022-09-21T08:16:55;101138.69;;;20.92;46.11
17072;BME280;7731;50.720;6.912;2022-09-21T08:19:25;101150.44;;;20.39;49.11
17072;BME280;7731;50.720;6.912;2022-09-21T08:21:58;101148.19;;;21.49;44.96
17072;BME280;7731;50.720;6.912;2022-09-21T08:24:28;101145.44;;;21.51;44.37
17072;BME280;7731;50.720;6.912;2022-09-21T08:27:02;101151.09;;;19.83;48.88
17072;BME280;7731;50.720;6.912;2022-09-21T08:29:37;101149.56;;;19.92;50.10
17072;BME280;7731;50.720;6.912;2022-09-21T08:32:12;101140.41;;;21.70;46.63
17072;BME280;7731;50.720;6.912;2022-09-21T08:35:02;101147.69;;;20.76;48.20
17072;BME280;7731;50.720;6.912;2022-09-21T08:37:33;101147.44;;;20.57;48.22
17072;BME280;7731;50.720;6.912;2022-09-21T08:40:10;101149.63;;;21.08;46.13
17072;BME280;7731;50.720;6.912;2022-09-21T08:42:54;101148.03;;;20.13;51.62
17072;BME280;7731;50.720;6.912;2022-09-21T08:45:38;101144.34;;;20.16;50.46
17072;BME280;7731;50.720;6.912;2022-09-21T08:48:25;101143.47;;;20.04;51.49
17072;BME280;7731;50.720;6.912;2022-09-21T08:51:07;101147.13;;;19.77;52.33
17072;BME280;7731;50.720;6.912;2022-09-21T08:53:43;101146.44;;;19.25;55.52
17072;BME280;7731;50.720;6.912;2022-09-21T08:56:24;101140.34;;;20.70;51.28
17072;BME280;7731;50.720;6.912;2022-09-21T08:59:15;101131.22;;;22.29;46.10
17072;BME280;7731;50.720;6.912;2022-09-21T09:01:59;101137.81;;;21.48;47.88
17072;BME280;7731;50.720;6.912;2022-09-21T09:04:51;101142.41;;;21.67;46.63
17072;BME280;7731;50.720;6.912;2022-09-21T09:07:44;101135.09;;;22.14;47.12
17072;BME280;7731;50.720;6.912;2022-09-21T09:10:35;101136.63;;;23.11;43.88
17072;BME280;7731;50.720;6.912;2022-09-21T09:13:32;101139.41;;;21.05;48.85
17072;BME280;7731;50.720;6.912;2022-09-21T09:16:15;101133.19;;;21.84;45.56
17072;BME280;7731;50.720;6.912;2022-09-21T09:19:01;101143.22;;;20.78;50.01
17072;BME280;7731;50.720;6.912;2022-09-21T09:21:38;101139.06;;;22.41;46.54
17072;BME280;7731;50.720;6.912;2022-09-21T09:24:17;101137.22;;;21.44;46.25
17072;BME280;7731;50.720;6.912;2022-09-21T09:26:53;101144.22;;;21.99;44.74
17072;BME280;7731;50.720;6.912;2022-09-21T09:29:32;101132.72;;;21.23;44.32
17072;BME280;7731;50.720;6.912;2022-09-21T09:32:14;101131.38;;;23.81;40.51
17072;BME280;7731;50.720;6.912;2022-09-21T09:34:57;101138.59;;;22.97;42.53
17072;BME280;7731;50.720;6.912;2022-09-21T09:37:37;101138.00;;;21.79;46.39
17072;BME280;7731;50.720;6.912;2022-09-21T09:40:14;101137.16;;;21.78;46.13
17072;BME280;7731;50.720;6.912;2022-09-21T09:42:58;101126.53;;;21.58;44.46
17072;BME280;7731;50.720;6.912;2022-09-21T09:45:44;101133.66;;;22.21;43.54
17072;BME280;7731;50.720;6.912;2022-09-21T09:48:36;101127.19;;;22.68;41.56
17072;BME280;7731;50.720;6.912;2022-09-21T09:51:12;101117.84;;;25.37;35.89
17072;BME280;7731;50.720;6.912;2022-09-21T09:53:42;101121.50;;;24.61;37.24
17072;BME280;7731;50.720;6.912;2022-09-21T09:56:13;101113.56;;;25.54;35.14
17072;BME280;7731;50.720;6.912;2022-09-21T09:58:53;101134.47;;;22.22;41.24
17072;BME280;7731;50.720;6.912;2022-09-21T10:01:43;101134.75;;;21.86;42.82
17072;BME280;7731;50.720;6.912;2022-09-21T10:04:16;101121.94;;;22.68;39.55
17072;BME280;7731;50.720;6.912;2022-09-21T10:06:49;101108.56;;;23.81;36.09
17072;BME280;7731;50.720;6.912;2022-09-21T10:09:28;101102.78;;;26.88;31.06
17072;BME280;7731;50.720;6.912;2022-09-21T10:12:01;101111.56;;;24.35;34.59
17072;BME280;7731;50.720;6.912;2022-09-21T10:14:36;101115.50;;;23.92;35.69
17072;BME280;7731;50.720;6.912;2022-09-21T10:17:07;101121.03;;;22.78;36.92
17072;BME280;7731;50.720;6.912;2022-09-21T10:19:41;101112.41;;;25.11;34.41
17072;BME280;7731;50.720;6.912;2022-09-21T10:22:20;101108.75;;;22.48;35.89
17072;BME280;7731;50.720;6.912;2022-09-21T10:24:53;101116.94;;;20.10;42.17
17072;BME280;7731;50.720;6.912;2022-09-21T10:27:34;101120.69;;;19.58;44.24
17072;BME280;7731;50.720;6.912;2022-09-21T10:30:35;101116.03;;;19.74;46.77
17072;BME280;7731;50.720;6.912;2022-09-21T10:33:19;101116.91;;;20.46;44.03
17072;BME280;7731;50.720;6.912;2022-09-21T10:35:51;101117.78;;;19.25;46.57
17072;BME280;7731;50.720;6.912;2022-09-21T10:38:26;101129.84;;;18.24;50.35
17072;BME280;7731;50.720;6.912;2022-09-21T10:40:57;101126.94;;;18.28;48.48
17072;BME280;7731;50.720;6.912;2022-09-21T10:43:39;101122.84;;;17.98;49.55
17072;BME280;7731;50.720;6.912;2022-09-21T10:46:15;101133.53;;;17.38;53.99
17072;BME280;7731;50.720;6.912;2022-09-21T10:48:46;101129.75;;;16.86;56.16
17072;BME280;7731;50.720;6.912;2022-09-21T10:51:27;101131.47;;;16.71;58.67
17072;BME280;7731;50.720;6.912;2022-09-21T10:54:00;101128.13;;;17.82;52.08
17072;BME280;7731;50.720;6.912;2022-09-21T10:56:30;101126.56;;;18.07;51.37
17072;BME280;7731;50.720;6.912;2022-09-21T10:59:12;101125.69;;;17.66;52.44
17072;BME280;7731;50.720;6.912;2022-09-21T11:01:56;101126.03;;;17.75;51.99
17072;BME280;7731;50.720;6.912;2022-09-21T11:04:35;101124.63;;;18.89;49.23
17072;BME280;7731;50.720;6.912;2022-09-21T11:07:17;101113.84;;;19.57;46.99
17072;BME280;7731;50.720;6.912;2022-09-21T11:09:57;101112.44;;;21.27;43.00
17072;BME280;7731;50.720;6.912;2022-09-21T11:12:48;101112.94;;;19.93;45.90
17072;BME280;7731;50.720;6.912;2022-09-21T11:15:37;101117.53;;;19.04;49.16
17072;BME280;7731;50.720;6.912;2022-09-21T11:18:21;101112.50;;;18.76;50.79
17072;BME280;7731;50.720;6.912;2022-09-21T11:21:00;101097.97;;;20.89;43.99
17072;BME280;7731;50.720;6.912;2022-09-21T11:23:48;101114.28;;;19.38;48.06
17072;BME280;7731;50.720;6.912;2022-09-21T11:26:26;101108.81;;;20.38;43.79
17072;BME280;7731;50.720;6.912;2022-09-21T11:29:10;101108.53;;;18.83;48.96
17072;BME280;7731;50.720;6.912;2022-09-21T11:32:07;101105.56;;;19.63;46.80
17072;BME280;7731;50.720;6.912;2022-09-21T11:35:19;101099.50;;;18.50;49.59
17072;BME280;7731;50.720;6.912;2022-09-21T11:38:11;101101.03;;;17.59;53.57
17072;BME280;7731;50.720;6.912;2022-09-21T11:41:10;101100.34;;;17.28;55.34
17072;BME280;7731;50.720;6.912;2022-09-21T11:44:02;101098.72;;;17.82;52.93
17072;BME280;7731;50.720;6.912;2022-09-21T11:46:46;101091.94;;;17.52;52.71
17072;BME280;7731;50.720;6.912;2022-09-21T11:49:43;101098.03;;;17.65;52.54
17072;BME280;7731;50.720;6.912;2022-09-21T11:52:57;101096.66;;;17.33;53.19
17072;BME280;7731;50.720;6.912;2022-09-21T11:56:08;101093.47;;;17.42;52.14
17072;BME280;7731;50.720;6.912;2022-09-21T11:58:50;101093.66;;;17.66;49.91
17072;BME280;7731;50.720;6.912;2022-09-21T12:02:01;101090.91;;;17.82;51.08
17072;BME280;7731;50.720;6.912;2022-09-21T12:04:48;101085.69;;;17.96;50.34
17072;BME280;7731;50.720;6.912;2022-09-21T12:07:42;101082.53;;;18.70;49.12
17072;BME280;7731;50.720;6.912;2022-09-21T12:10:37;101073.78;;;18.45;49.26
17072;BME280;7731;50.720;6.912;2022-09-21T12:13:18;101067.38;;;19.14;46.93
17072;BME280;7731;50.720;6.912;2022-09-21T12:16:02;101064.47;;;18.02;49.96
17072;BME280;7731;50.720;6.912;2022-09-21T12:18:53;101062.84;;;18.91;46.29
17072;BME280;7731;50.720;6.912;2022-09-21T12:21:34;101058.66;;;18.89;44.94
17072;BME280;7731;50.720;6.912;2022-09-21T12:24:16;101059.81;;;18.59;44.07
17072;BME280;7731;50.720;6.912;2022-09-21T12:26:55;101051.25;;;18.83;42.62
17072;BME280;7731;50.720;6.912;2022-09-21T12:29:32;101057.63;;;19.04;42.00
17072;BME280;7731;50.720;6.912;2022-09-21T12:32:12;101048.94;;;19.04;41.79
17072;BME280;7731;50.720;6.912;2022-09-21T12:34:52;101053.41;;;19.15;41.51
17072;BME280;7731;50.720;6.912;2022-09-21T12:37:30;101042.91;;;19.65;41.62
17072;BME280;7731;50.720;6.912;2022-09-21T12:40:11;101053.13;;;19.55;41.06
17072;BME280;7731;50.720;6.912;2022-09-21T12:43:12;101049.69;;;19.30;41.16
17072;BME280;7731;50.720;6.912;2022-09-21T12:45:57;101051.38;;;19.31;42.25
17072;BME280;7731;50.720;6.912;2022-09-21T12:48:32;101046.31;;;19.65;41.04
17072;BME280;7731;50.720;6.912;2022-09-21T12:51:12;101040.44;;;19.50;40.31
17072;BME280;7731;50.720;6.912;2022-09-21T12:53:45;101048.13;;;19.03;40.93
17072;BME280;7731;50.720;6.912;2022-09-21T12:56:31;101039.72;;;19.72;39.76
17072;BME280;7731;50.720;6.912;2022-09-21T12:59:24;101043.56;;;18.68;40.98
17072;BME280;7731;50.720;6.912;2022-09-21T13:02:15;101049.06;;;17.59;44.61
17072;BME280;7731;50.720;6.912;2022-09-21T13:05:02;101038.72;;;17.85;42.95
17072;BME280;7731;50.720;6.912;2022-09-21T13:08:01;101041.25;;;17.32;45.93
17072;BME280;7731;50.720;6.912;2022-09-21T13:10:43;101040.88;;;16.96;46.57
17072;BME280;7731;50.720;6.912;2022-09-21T13:13:28;101034.19;;;17.07;47.23
17072;BME280;7731;50.720;6.912;2022-09-21T13:16:05;101030.28;;;17.41;46.18
17072;BME280;7731;50.720;6.912;2022-09-21T13:18:39;101035.34;;;17.97;44.61
17072;BME280;7731;50.720;6.912;2022-09-21T13:21:20;101031.84;;;17.84;44.56
17072;BME280;7731;50.720;6.912;2022-09-21T13:23:56;101029.06;;;17.87;45.12
17072;BME280;7731;50.720;6.912;2022-09-21T13:26:33;101031.63;;;18.27;43.15
17072;BME280;7731;50.720;6.912;2022-09-21T13:29:30;101020.63;;;18.99;41.59
17072;BME280;7731;50.720;6.912;2022-09-21T13:32:22;101022.81;;;19.05;40.51
17072;BME280;7731;50.720;6.912;2022-09-21T13:38:26;101015.13;;;18.78;40.17
17072;BME280;7731;50.720;6.912;2022-09-21T13:40:59;101019.75;;;18.49;40.71
17072;BME280;7731;50.720;6.912;2022-09-21T13:43:46;101024.69;;;17.88;41.74
17072;BME280;7731;50.720;6.912;2022-09-21T13:46:55;101021.75;;;17.79;42.76
17072;BME280;7731;50.720;6.912;2022-09-21T13:49:54;101027.03;;;17.65;42.66
17072;BME280;7731;50.720;6.912;2022-09-21T13:52:35;101021.34;;;17.73;42.66
17072;BME280;7731;50.720;6.912;2022-09-21T13:55:25;101014.59;;;17.83;42.40
17072;BME280;7731;50.720;6.912;2022-09-21T13:58:01;101006.41;;;17.49;42.35
17072;BME280;7731;50.720;6.912;2022-09-21T14:00:37;101001.78;;;17.40;43.49
17072;BME280;7731;50.720;6.912;2022-09-21T14:03:24;101002.84;;;17.37;44.43